createdAt,value
2022-09-21T00:02:37.833Z,73.25
2022-09-21T00:05:39.649Z,72.66
2022-09-21T00:08:41.801Z,70.87
2022-09-21T00:11:43.642Z,69.28
2022-09-21T00:14:45.418Z,64.81
2022-09-21T00:17:50.027Z,68.65
2022-09-21T00:20:54.645Z,68.25
2022-09-21T00:23:56.649Z,69.54
2022-09-21T00:26:58.436Z,68.91
2022-09-21T00:30:02.608Z,70.27
2022-09-21T00:33:04.535Z,66.59
2022-09-21T00:36:07.293Z,67.81
2022-09-21T00:39:09.531Z,66.59
2022-09-21T00:42:14.820Z,68.16
2022-09-21T00:45:21.238Z,67.78
2022-09-21T00:48:23.186Z,67.42
2022-09-21T00:51:24.962Z,68.87
2022-09-21T00:54:28.162Z,69.40
2022-09-21T00:57:31.207Z,67.13
2022-09-21T01:00:33.001Z,69.10
2022-09-21T01:03:34.819Z,70.00
2022-09-21T01:06:36.972Z,66.02
2022-09-21T01:09:39.384Z,68.39
2022-09-21T01:12:41.177Z,68.28
2022-09-21T01:15:58.484Z,67.99
2022-09-21T01:19:10.785Z,68.09
2022-09-21T01:22:24.626Z,67.45
2022-09-21T01:25:45.037Z,65.66
2022-09-21T01:28:56.123Z,68.72
2022-09-21T01:32:08.774Z,65.41
2022-09-21T01:35:20.946Z,66.98
2022-09-21T01:38:27.239Z,69.46
2022-09-21T01:41:29.215Z,69.94
2022-09-21T01:44:33.472Z,67.81
2022-09-21T01:47:35.877Z,68.58
2022-09-21T01:50:38.718Z,68.03
2022-09-21T01:53:53.255Z,65.06
2022-09-21T01:56:55.970Z,62.56
2022-09-21T01:59:58.150Z,63.39
2022-09-21T02:03:03.829Z,64.30
2022-09-21T02:06:06.040Z,64.38
2022-09-21T02:09:08.266Z,65.50
2022-09-21T02:12:10.658Z,67.80
2022-09-21T02:15:12.448Z,65.79
2022-09-21T02:18:40.372Z,66.11
2022-09-21T02:22:20.975Z,65.86
2022-09-21T02:25:26.861Z,66.67
2022-09-21T02:28:38.245Z,66.28
2022-09-21T02:32:06.553Z,65.71
2022-09-21T02:35:11.289Z,67.84
2022-09-21T02:38:22.421Z,65.44
2022-09-21T02:41:50.482Z,68.98
2022-09-21T02:45:10.920Z,66.90
2022-09-21T02:48:13.824Z,71.38
2022-09-21T02:51:21.140Z,70.40
2022-09-21T02:54:24.693Z,69.71
2022-09-21T02:57:26.512Z,70.07
2022-09-21T03:00:28.399Z,69.42
2022-09-21T03:03:30.248Z,68.46
2022-09-21T03:06:32.089Z,70.88
2022-09-21T03:09:33.977Z,69.57
2022-09-21T03:12:35.960Z,70.63
2022-09-21T03:15:38.318Z,71.14
2022-09-21T03:18:40.351Z,65.98
2022-09-21T03:21:44.642Z,67.15
2022-09-21T03:24:46.849Z,65.98
2022-09-21T03:27:48.683Z,64.97
2022-09-21T03:30:50.985Z,67.36
2022-09-21T03:33:52.950Z,69.30
2022-09-21T03:36:55.109Z,69.06
2022-09-21T03:39:56.913Z,69.05
2022-09-21T03:42:59.073Z,66.82
2022-09-21T03:46:01.275Z,66.61
2022-09-21T03:49:03.116Z,63.75
2022-09-21T03:52:04.940Z,64.17
2022-09-21T03:55:08.138Z,67.26
2022-09-21T03:58:10.034Z,67.46
2022-09-21T04:01:11.881Z,63.69
2022-09-21T04:04:13.701Z,63.20
2022-09-21T04:07:15.609Z,65.23
2022-09-21T04:10:18.539Z,63.33
2022-09-21T04:13:20.338Z,66.46
2022-09-21T04:16:22.838Z,66.60
2022-09-21T04:19:24.621Z,70.22
2022-09-21T04:22:26.438Z,69.82
2022-09-21T04:25:28.710Z,67.02
2022-09-21T04:28:32.392Z,64.67
2022-09-21T04:31:34.294Z,64.22
2022-09-21T04:34:37.389Z,66.26
2022-09-21T04:37:39.235Z,67.64
2022-09-21T04:40:41.168Z,67.69
2022-09-21T04:43:43.741Z,67.54
2022-09-21T04:46:45.686Z,66.89
2022-09-21T04:49:47.622Z,67.66
2022-09-21T04:52:49.518Z,66.63
2022-09-21T04:55:51.284Z,64.89
2022-09-21T04:58:53.128Z,67.42
2022-09-21T05:01:54.933Z,67.18
2022-09-21T05:04:56.761Z,67.21
2022-09-21T05:07:58.586Z,68.24
2022-09-21T05:11:00.373Z,66.78
2022-09-21T05:14:02.281Z,64.05
2022-09-21T05:17:04.096Z,66.79
2022-09-21T05:20:06.108Z,65.38
2022-09-21T05:23:08.048Z,67.31
2022-09-21T05:26:09.892Z,67.74
2022-09-21T05:29:11.762Z,66.04
2022-09-21T05:32:18.934Z,62.23
2022-09-21T05:35:33.087Z,65.36
2022-09-21T05:38:34.955Z,60.45
2022-09-21T05:41:36.986Z,62.04
2022-09-21T05:44:38.871Z,61.11
2022-09-21T05:47:43.726Z,60.39
2022-09-21T05:51:05.140Z,56.61
2022-09-21T05:54:09.945Z,58.91
2022-09-21T05:57:17.905Z,57.00
2022-09-21T06:00:20.520Z,56.27
2022-09-21T06:03:29.524Z,57.07
2022-09-21T06:06:33.933Z,57.30
2022-09-21T06:09:37.981Z,55.88
2022-09-21T06:12:43.209Z,52.80
2022-09-21T06:15:45.049Z,57.46
2022-09-21T06:18:47.097Z,56.11
2022-09-21T06:21:49.109Z,55.58
2022-09-21T06:24:51.069Z,55.98
2022-09-21T06:27:52.906Z,52.88
2022-09-21T06:30:55.286Z,54.48
2022-09-21T06:33:57.274Z,50.70
2022-09-21T06:36:59.071Z,50.25
2022-09-21T06:40:00.950Z,45.83
2022-09-21T06:43:03.468Z,46.34
2022-09-21T06:46:05.601Z,41.92
2022-09-21T06:49:07.729Z,40.77
2022-09-21T06:52:09.718Z,41.54
2022-09-21T06:55:11.536Z,41.73
2022-09-21T06:58:13.484Z,45.39
2022-09-21T07:01:15.733Z,45.28
2022-09-21T07:04:20.856Z,40.34
2022-09-21T07:07:25.427Z,41.22
2022-09-21T07:10:27.506Z,40.56
2022-09-21T07:13:29.505Z,40.04
2022-09-21T07:16:31.350Z,36.23
2022-09-21T07:19:33.300Z,37.98
2022-09-21T07:22:35.322Z,36.26
2022-09-21T07:25:37.568Z,39.28
2022-09-21T07:28:39.581Z,34.68
2022-09-21T07:31:43.301Z,35.00
2022-09-21T07:34:45.621Z,34.84
2022-09-21T07:37:47.452Z,34.10
2022-09-21T07:40:49.562Z,36.70
2022-09-21T07:43:51.482Z,32.63
2022-09-21T07:46:53.300Z,30.64
2022-09-21T07:49:55.575Z,32.16
2022-09-21T07:52:58.871Z,30.36
2022-09-21T07:56:04.565Z,35.75
2022-09-21T07:59:06.536Z,36.45
2022-09-21T08:02:08.492Z,38.64
2022-09-21T08:05:10.396Z,42.82
2022-09-21T08:08:12.314Z,41.42
2022-09-21T08:11:14.962Z,43.34
2022-09-21T08:14:26.134Z,45.99
2022-09-21T08:17:29.690Z,44.78
2022-09-21T08:20:31.651Z,48.78
2022-09-21T08:23:33.543Z,46.45
2022-09-21T08:26:35.580Z,47.53
2022-09-21T08:29:37.470Z,44.98
2022-09-21T08:32:51.034Z,47.04
2022-09-21T08:35:54.208Z,48.04
2022-09-21T08:38:57.031Z,47.58
2022-09-21T08:41:59.674Z,48.77
2022-09-21T08:45:02.583Z,48.42
2022-09-21T08:48:05.768Z,46.99
2022-09-21T08:51:08.894Z,41.21
2022-09-21T08:54:13.718Z,41.08
2022-09-21T08:57:15.887Z,42.85
2022-09-21T09:00:18.856Z,46.67
2022-09-21T09:03:27.108Z,43.76
2022-09-21T09:06:35.258Z,38.63
2022-09-21T09:09:46.024Z,38.85
2022-09-21T09:13:01.022Z,37.77
2022-09-21T09:16:09.012Z,33.50
2022-09-21T09:19:17.676Z,35.65
2022-09-21T09:22:21.074Z,33.79
2022-09-21T09:25:23.217Z,32.66
2022-09-21T09:28:27.361Z,33.40
2022-09-21T09:31:30.185Z,34.93
2022-09-21T09:34:35.684Z,33.14
2022-09-21T09:37:37.923Z,34.87
2022-09-21T09:40:48.849Z,37.29
2022-09-21T09:44:04.932Z,36.92
2022-09-21T09:47:25.645Z,32.52
2022-09-21T09:50:28.992Z,31.57
2022-09-21T09:53:31.827Z,34.11
2022-09-21T09:56:34.089Z,33.75
2022-09-21T09:59:43.678Z,28.74
2022-09-21T10:02:49.809Z,26.70
2022-09-21T10:05:51.965Z,31.84
2022-09-21T10:08:53.843Z,28.61
2022-09-21T10:12:00.736Z,29.07
2022-09-21T10:15:02.546Z,27.11
2022-09-21T10:18:06.518Z,27.24
2022-09-21T10:21:09.519Z,28.82
2022-09-21T10:24:25.461Z,27.04
2022-09-21T10:27:28.050Z,29.09
2022-09-21T10:30:29.824Z,29.80
2022-09-21T10:33:31.700Z,31.81
2022-09-21T10:36:35.006Z,32.03
2022-09-21T10:39:36.913Z,37.42
2022-09-21T10:42:41.920Z,40.10
2022-09-21T10:45:43.836Z,38.21
2022-09-21T10:48:46.046Z,38.70
2022-09-21T10:51:48.375Z,38.39
2022-09-21T10:54:52.343Z,38.47
2022-09-21T10:57:54.130Z,38.02
2022-09-21T11:00:57.268Z,37.72
2022-09-21T11:04:00.750Z,40.31
2022-09-21T11:07:05.415Z,37.93
2022-09-21T11:10:13.866Z,38.40
2022-09-21T11:13:30.203Z,39.50
2022-09-21T11:16:52.340Z,40.39
2022-09-21T11:20:03.483Z,41.25
2022-09-21T11:23:11.228Z,39.45
2022-09-21T11:26:13.045Z,39.08
2022-09-21T11:32:37.134Z,39.49
2022-09-21T11:35:58.743Z,39.46
2022-09-21T11:39:08.965Z,39.33
2022-09-21T11:42:24.685Z,39.46
2022-09-21T11:45:49.702Z,38.31
2022-09-21T11:48:55.174Z,35.98
2022-09-21T11:52:03.989Z,34.68
2022-09-21T11:55:09.772Z,33.36
2022-09-21T11:58:18.744Z,33.65
2022-09-21T12:01:31.370Z,36.39
2022-09-21T12:04:56.595Z,34.59
2022-09-21T12:08:18.674Z,35.26
2022-09-21T12:11:20.549Z,34.05
2022-09-21T12:14:25.482Z,37.71
2022-09-21T12:17:37.265Z,36.01
2022-09-21T12:21:08.638Z,34.97
2022-09-21T12:24:31.884Z,35.35
2022-09-21T12:27:35.055Z,34.66
2022-09-21T12:30:37.280Z,34.96
2022-09-21T12:33:45.434Z,33.26
2022-09-21T12:36:50.617Z,32.02
2022-09-21T12:39:58.857Z,32.88
2022-09-21T12:43:19.778Z,32.99
2022-09-21T12:46:22.587Z,38.05
2022-09-21T12:49:26.509Z,37.55
2022-09-21T12:52:28.337Z,38.76
2022-09-21T12:55:30.168Z,36.69
2022-09-21T12:58:37.770Z,35.02
2022-09-21T13:01:47.496Z,36.96
2022-09-21T13:05:08.281Z,32.51
2022-09-21T13:08:10.122Z,32.72
2022-09-21T13:11:12.166Z,32.62
2022-09-21T13:14:14.112Z,28.48
2022-09-21T13:17:19.722Z,25.06
2022-09-21T13:20:23.882Z,25.12
2022-09-21T13:23:26.966Z,25.30
2022-09-21T13:26:36.022Z,24.11
2022-09-21T13:29:39.995Z,26.82
2022-09-21T13:32:51.582Z,33.44
2022-09-21T13:36:02.182Z,36.99
2022-09-21T13:39:12.057Z,38.53
2022-09-21T13:42:32.760Z,37.78
2022-09-21T13:45:34.607Z,38.35
2022-09-21T13:48:39.770Z,39.22
2022-09-21T13:51:57.797Z,36.83
2022-09-21T13:55:00.428Z,36.49
2022-09-21T13:58:04.739Z,37.92
2022-09-21T14:01:09.901Z,38.16
2022-09-21T14:04:24.468Z,37.92
2022-09-21T14:07:29.185Z,36.66
2022-09-21T14:10:32.291Z,35.12
2022-09-21T14:13:42.054Z,35.26
2022-09-21T14:16:47.510Z,35.21
2022-09-21T14:19:56.040Z,36.54
2022-09-21T14:23:11.511Z,35.45
2022-09-21T14:26:20.864Z,35.53
2022-09-21T14:29:28.618Z,37.53
2022-09-21T14:32:35.478Z,37.83
2022-09-21T14:35:37.862Z,37.90
2022-09-21T14:38:53.908Z,38.32
2022-09-21T14:41:56.735Z,38.60
2022-09-21T14:45:02.177Z,38.72
2022-09-21T14:48:07.074Z,37.23
2022-09-21T14:51:11.995Z,36.77
2022-09-21T14:54:17.485Z,36.77
2022-09-21T14:57:19.415Z,37.52
2022-09-21T15:00:26.661Z,37.11
2022-09-21T15:03:42.823Z,38.08
2022-09-21T15:07:09.865Z,38.62
2022-09-21T15:10:49.710Z,39.08
2022-09-21T15:13:56.980Z,38.81
2022-09-21T15:16:58.796Z,39.16
2022-09-21T15:20:01.012Z,38.91
2022-09-21T15:23:04.403Z,38.94
2022-09-21T15:26:10.036Z,39.70
2022-09-21T15:29:17.244Z,39.65
2022-09-21T15:32:29.723Z,38.98
2022-09-21T15:35:32.578Z,38.49
2022-09-21T15:38:36.358Z,39.00
2022-09-21T15:41:39.781Z,38.71
2022-09-21T15:44:43.738Z,39.75
2022-09-21T15:47:45.614Z,38.88
2022-09-21T15:50:48.854Z,39.19
2022-09-21T15:53:55.863Z,39.27
2022-09-21T15:56:59.262Z,38.74
2022-09-21T16:00:01.753Z,39.88
2022-09-21T16:03:05.694Z,38.81
2022-09-21T16:06:27.122Z,37.52
2022-09-21T16:09:39.738Z,39.08
2022-09-21T16:12:42.203Z,39.61
2022-09-21T16:15:44.087Z,40.18
2022-09-21T16:18:49.980Z,39.37
2022-09-21T16:21:51.874Z,40.54
2022-09-21T16:24:55.379Z,41.54
2022-09-21T16:27:58.587Z,42.59
2022-09-21T16:31:00.496Z,42.85
2022-09-21T16:34:07.979Z,42.98
2022-09-21T16:37:24.541Z,43.13
2022-09-21T16:40:26.970Z,43.52
2022-09-21T16:43:28.942Z,43.87
2022-09-21T16:46:31.879Z,45.49
2022-09-21T16:49:35.607Z,45.95
2022-09-21T16:52:37.438Z,46.15
2022-09-21T16:55:41.282Z,45.98
2022-09-21T16:58:44.212Z,45.90
2022-09-21T17:01:50.853Z,44.85
2022-09-21T17:04:54.685Z,46.25
2022-09-21T17:07:57.367Z,46.41
2022-09-21T17:11:00.883Z,47.03
2022-09-21T17:14:05.894Z,46.03
2022-09-21T17:17:11.328Z,44.30
2022-09-21T17:20:18.295Z,47.66
2022-09-21T17:23:20.499Z,45.77
2022-09-21T17:26:22.485Z,47.31
2022-09-21T17:29:26.891Z,47.83
2022-09-21T17:32:29.257Z,45.54
2022-09-21T17:35:32.112Z,44.94
2022-09-21T17:38:35.432Z,46.91
2022-09-21T17:41:43.802Z,45.36
2022-09-21T17:45:15.128Z,45.71
2022-09-21T17:48:18.581Z,44.65
2022-09-21T17:51:40.751Z,46.43
2022-09-21T17:54:42.626Z,44.95
2022-09-21T17:57:47.265Z,45.05
2022-09-21T18:00:50.441Z,44.60
2022-09-21T18:03:52.377Z,47.13
2022-09-21T18:06:54.696Z,45.99
2022-09-21T18:09:56.697Z,45.03
2022-09-21T18:13:14.219Z,45.21
2022-09-21T18:16:35.439Z,47.46
2022-09-21T18:19:52.584Z,48.62
2022-09-21T18:22:57.560Z,47.41
2022-09-21T18:25:59.669Z,49.32
2022-09-21T18:29:12.575Z,48.25
2022-09-21T18:32:41.816Z,49.92
2022-09-21T18:36:00.751Z,47.48
2022-09-21T18:39:22.760Z,48.01
2022-09-21T18:42:28.001Z,48.00
2022-09-21T18:45:32.173Z,50.90
2022-09-21T18:48:57.351Z,50.72
2022-09-21T18:52:02.327Z,51.19
2022-09-21T18:55:08.069Z,48.40
2022-09-21T18:58:10.390Z,51.10
2022-09-21T19:01:12.902Z,51.86
2022-09-21T19:04:17.053Z,51.68
2022-09-21T19:07:36.425Z,50.65
2022-09-21T19:10:45.366Z,51.79
2022-09-21T19:14:13.639Z,52.49
2022-09-21T19:17:18.257Z,52.40
2022-09-21T19:20:33.812Z,51.07
2022-09-21T19:23:47.774Z,51.45
2022-09-21T19:26:50.034Z,52.80
2022-09-21T19:30:18.243Z,53.16
2022-09-21T19:33:48.359Z,53.48
2022-09-21T19:36:47.733Z,53.40
2022-09-21T19:39:49.651Z,54.81
2022-09-21T19:42:52.305Z,53.58
2022-09-21T19:46:12.824Z,53.01
2022-09-21T19:49:18.887Z,53.51
2022-09-21T19:52:25.107Z,54.77
2022-09-21T19:55:45.477Z,55.24
2022-09-21T19:59:06.205Z,54.15
2022-09-21T20:02:10.808Z,54.48
2022-09-21T20:05:23.490Z,53.89
2022-09-21T20:08:28.522Z,53.87
2022-09-21T20:11:39.333Z,52.47
2022-09-21T20:14:47.310Z,53.81
2022-09-21T20:17:50.305Z,53.23
2022-09-21T20:20:52.122Z,54.55
2022-09-21T20:23:55.361Z,55.79
2022-09-21T20:26:57.244Z,56.32
2022-09-21T20:29:59.070Z,53.49
2022-09-21T20:33:06.791Z,56.98
2022-09-21T20:36:09.181Z,55.22
2022-09-21T20:39:10.974Z,54.57
2022-09-21T20:42:30.985Z,53.27
2022-09-21T20:45:33.297Z,54.33
2022-09-21T20:48:37.054Z,54.03
2022-09-21T20:51:39.080Z,56.59
2022-09-21T20:54:43.382Z,56.46
2022-09-21T20:57:47.381Z,57.50
2022-09-21T21:00:49.816Z,57.03
2022-09-21T21:03:51.824Z,57.58
2022-09-21T21:06:53.667Z,57.62
2022-09-21T21:09:55.481Z,58.22
2022-09-21T21:12:57.695Z,57.66
2022-09-21T21:16:00.213Z,58.95
2022-09-21T21:19:02.032Z,57.83
2022-09-21T21:22:03.868Z,58.96
2022-09-21T21:25:05.817Z,58.32
2022-09-21T21:28:07.654Z,59.15
2022-09-21T21:31:09.460Z,58.85
2022-09-21T21:34:11.286Z,59.43
2022-09-21T21:37:13.541Z,56.98
2022-09-21T21:40:15.480Z,56.82
2022-09-21T21:43:17.438Z,56.27
2022-09-21T21:46:19.503Z,55.66
2022-09-21T21:49:21.347Z,56.90
2022-09-21T21:52:23.126Z,55.53
2022-09-21T21:55:24.924Z,55.39
2022-09-21T21:58:27.682Z,55.20
2022-09-21T22:01:29.910Z,55.43
2022-09-21T22:04:31.957Z,55.75
2022-09-21T22:07:33.883Z,53.89
2022-09-21T22:10:35.664Z,55.35
2022-09-21T22:13:38.350Z,55.77
2022-09-21T22:16:40.220Z,55.21
2022-09-21T22:19:42.920Z,54.96
2022-09-21T22:22:44.707Z,54.96
2022-09-21T22:25:46.698Z,56.40
2022-09-21T22:28:49.527Z,55.53
2022-09-21T22:31:51.631Z,55.32
2022-09-21T22:34:53.554Z,55.27
2022-09-21T22:37:56.221Z,54.55
2022-09-21T22:41:04.853Z,53.30
2022-09-21T22:44:06.921Z,51.71
2022-09-21T22:47:08.721Z,52.27
2022-09-21T22:50:10.542Z,52.27
2022-09-21T22:53:12.342Z,52.28
2022-09-21T22:56:14.878Z,55.45
2022-09-21T22:59:16.750Z,52.94
2022-09-21T23:02:18.581Z,53.57
2022-09-21T23:05:20.365Z,54.22
2022-09-21T23:08:22.192Z,56.87
2022-09-21T23:11:27.101Z,55.19
2022-09-21T23:14:28.951Z,56.46
2022-09-21T23:17:31.246Z,57.03
2022-09-21T23:20:33.419Z,55.50
2022-09-21T23:23:35.340Z,54.16
2022-09-21T23:26:37.183Z,52.61
2022-09-21T23:29:39.005Z,53.25
2022-09-21T23:32:40.844Z,52.44
2022-09-21T23:35:42.635Z,52.95
2022-09-21T23:38:44.522Z,54.00
2022-09-21T23:41:46.339Z,55.30
2022-09-21T23:44:48.160Z,57.00
2022-09-21T23:47:49.942Z,57.47
2022-09-21T23:50:51.764Z,57.59
2022-09-21T23:53:53.656Z,58.49
2022-09-21T23:56:55.471Z,58.47
2022-09-21T23:59:57.277Z,57.75
